Time;durP1;ratioP1;P1;durP2;ratioP2;P2;SDS_P1;SDS_P2;PMS_P1;PMS_P2;Temp;Humidity;BMP_temperature;BMP_pressure;BME280_temperature;BME280_humidity;BME280_pressure;Samples;Min_cycle;Max_cycle;Signal;HPM_P1;HPM_P2
2023/03/06 00:00:44;;;;;;;3.63;3.17;;;5.30;1.00;;;;;;5047975;28;20872;-56
2023/03/06 00:03:10;;;;;;;4.13;3.30;;;5.40;1.00;;;;;;5048403;28;20471;-54
2023/03/06 00:05:35;;;;;;;6.07;3.73;;;5.30;1.00;;;;;;5041340;28;21082;-54
2023/03/06 00:08:01;;;;;;;4.57;3.50;;;5.40;1.00;;;;;;5046930;28;20189;-53
2023/03/06 00:10:29;;;;;;;4.80;3.67;;;5.40;1.00;;;;;;5047396;28;20184;-54
2023/03/06 00:12:57;;;;;;;4.70;3.37;;;5.30;1.00;;;;;;5045084;28;20646;-57
2023/03/06 00:15:24;;;;;;;7.43;3.80;;;5.20;1.00;;;;;;5044428;28;20474;-50
2023/03/06 00:17:51;;;;;;;3.70;3.17;;;5.30;1.00;;;;;;5043788;28;20492;-56
2023/03/06 00:20:17;;;;;;;7.07;3.60;;;5.30;1.00;;;;;;5040801;28;20444;-52
2023/03/06 00:22:43;;;;;;;7.40;3.73;;;5.30;1.00;;;;;;5046301;28;20476;-54
2023/03/06 00:25:13;;;;;;;5.27;4.30;;;5.30;1.00;;;;;;5043438;28;21002;-53
2023/03/06 00:27:39;;;;;;;4.87;3.73;;;5.20;1.00;;;;;;5046873;28;20451;-53
2023/03/06 00:30:06;;;;;;;4.90;3.80;;;5.20;1.00;;;;;;5043989;28;21063;-51
2023/03/06 00:32:32;;;;;;;4.23;3.83;;;5.10;1.00;;;;;;5046197;28;20447;-55
2023/03/06 00:34:57;;;;;;;4.97;3.97;;;5.20;1.00;;;;;;5047296;28;20979;-53
2023/03/06 00:37:24;;;;;;;4.10;3.57;;;5.20;1.00;;;;;;5043796;28;20204;-53
2023/03/06 00:39:50;;;;;;;5.10;4.17;;;5.10;1.00;;;;;;5043339;28;20193;-51
2023/03/06 00:42:17;;;;;;;5.40;3.70;;;5.20;1.00;;;;;;5043883;28;20558;-52
2023/03/06 00:44:43;;;;;;;5.87;3.83;;;5.20;1.00;;;;;;5043901;28;20469;-53
2023/03/06 00:47:10;;;;;;;7.93;4.37;;;5.20;1.00;;;;;;5043779;28;20454;-52
2023/03/06 00:49:36;;;;;;;6.53;4.80;;;5.20;1.00;;;;;;5045498;28;20445;-54
2023/03/06 00:52:02;;;;;;;4.93;4.10;;;5.20;1.00;;;;;;5044892;28;20441;-56
2023/03/06 00:54:28;;;;;;;4.43;3.63;;;5.30;1.00;;;;;;5042659;28;20502;-53
2023/03/06 00:56:54;;;;;;;5.33;3.80;;;5.30;1.00;;;;;;5043079;28;20532;-54
2023/03/06 00:59:19;;;;;;;5.50;4.30;;;5.30;1.00;;;;;;5044254;28;20184;-54
2023/03/06 01:01:45;;;;;;;5.53;3.90;;;5.40;1.00;;;;;;5047214;28;20201;-54
2023/03/06 01:04:11;;;;;;;5.07;4.03;;;5.40;1.00;;;;;;5043171;28;20205;-56
2023/03/06 01:06:37;;;;;;;5.43;4.60;;;5.20;1.00;;;;;;5042801;28;20550;-53
2023/03/06 01:09:03;;;;;;;7.40;4.20;;;5.20;1.00;;;;;;5049351;28;20246;-53
2023/03/06 01:11:29;;;;;;;5.37;3.93;;;5.20;1.00;;;;;;5049140;28;21044;-54
2023/03/06 01:13:55;;;;;;;6.20;4.70;;;5.30;1.00;;;;;;5046619;28;20537;-53
2023/03/06 01:16:21;;;;;;;6.63;4.60;;;5.40;1.00;;;;;;5049188;28;20213;-55
2023/03/06 01:18:47;;;;;;;4.63;3.77;;;5.30;1.00;;;;;;5047945;28;20185;-54
2023/03/06 01:21:12;;;;;;;6.60;4.87;;;5.30;1.00;;;;;;5048187;28;20434;-52
2023/03/06 01:23:38;;;;;;;6.13;4.60;;;5.40;1.00;;;;;;5046527;28;22017;-53
2023/03/06 01:26:05;;;;;;;5.47;3.90;;;5.30;1.00;;;;;;5046127;28;20201;-54
2023/03/06 01:28:32;;;;;;;4.20;3.77;;;5.40;1.00;;;;;;5050602;28;20450;-55
2023/03/06 01:31:00;;;;;;;7.60;4.60;;;5.20;1.00;;;;;;5046435;28;20446;-54
2023/03/06 01:33:26;;;;;;;5.97;4.30;;;5.20;1.00;;;;;;5050586;28;20449;-53
2023/03/06 01:35:51;;;;;;;6.57;4.43;;;5.20;1.00;;;;;;5047884;28;20442;-54
2023/03/06 01:38:17;;;;;;;8.47;4.70;;;5.10;1.00;;;;;;5051253;28;20237;-53
2023/03/06 01:40:43;;;;;;;6.40;4.80;;;5.10;1.00;;;;;;5048896;28;20199;-52
2023/03/06 01:43:31;;;;;;;6.13;4.37;;;5.10;1.00;;;;;;5048556;28;21020;-52
2023/03/06 01:46:34;;;;;;;8.90;5.10;;;5.00;1.00;;;;;;5045583;28;20551;-54
2023/03/06 01:49:11;;;;;;;6.80;4.33;;;5.00;1.00;;;;;;5047685;28;20442;-51
2023/03/06 01:51:41;;;;;;;6.80;4.70;;;5.10;1.00;;;;;;5049452;28;20480;-53
2023/03/06 01:54:13;;;;;;;5.97;4.40;;;5.20;1.00;;;;;;5049839;28;20505;-54
2023/03/06 01:56:43;;;;;;;6.50;4.17;;;5.30;1.00;;;;;;5049356;28;20465;-54
2023/03/06 01:59:09;;;;;;;6.20;4.47;;;5.30;1.00;;;;;;5049609;28;20451;-52
2023/03/06 02:01:38;;;;;;;6.20;4.90;;;5.30;1.00;;;;;;5047464;28;20502;-52
2023/03/06 02:04:04;;;;;;;6.13;4.17;;;5.30;1.00;;;;;;5051794;28;20470;-53
2023/03/06 02:06:32;;;;;;;7.07;5.20;;;5.20;1.00;;;;;;5048873;28;20442;-52
2023/03/06 02:08:57;;;;;;;10.20;5.17;;;5.20;1.00;;;;;;5054211;28;20439;-54
2023/03/06 02:11:24;;;;;;;6.90;5.53;;;5.10;1.00;;;;;;5047446;28;20449;-54
2023/03/06 02:13:52;;;;;;;6.03;5.43;;;5.30;1.00;;;;;;5047428;28;20184;-51
2023/03/06 02:16:23;;;;;;;6.00;4.77;;;5.30;1.00;;;;;;5048229;28;20439;-55
2023/03/06 02:18:50;;;;;;;5.80;4.73;;;5.30;1.00;;;;;;5051291;28;20808;-54
2023/03/06 02:21:25;;;;;;;6.70;4.17;;;5.30;1.00;;;;;;5045991;28;20474;-52
2023/03/06 02:24:15;;;;;;;6.27;4.60;;;5.30;1.00;;;;;;5054285;28;20438;-54
2023/03/06 02:26:42;;;;;;;9.30;5.70;;;5.60;1.00;;;;;;5051261;28;20480;-54
2023/03/06 02:29:08;;;;;;;6.70;5.20;;;5.60;1.00;;;;;;5045218;28;20478;-53
2023/03/06 02:31:34;;;;;;;6.50;4.80;;;5.30;1.00;;;;;;5049024;28;20501;-55
2023/03/06 02:34:13;;;;;;;6.60;4.83;;;5.30;1.00;;;;;;5048510;28;20529;-52
2023/03/06 02:36:46;;;;;;;6.67;4.40;;;5.50;1.00;;;;;;5043427;28;20467;-51
2023/03/06 02:39:13;;;;;;;6.63;5.10;;;5.50;1.00;;;;;;5041239;28;20450;-55
2023/03/06 02:41:39;;;;;;;10.00;5.17;;;5.40;1.00;;;;;;5044996;28;20462;-57
2023/03/06 02:44:05;;;;;;;6.77;4.67;;;5.50;1.00;;;;;;5047110;28;20498;-53
2023/03/06 02:46:31;;;;;;;7.40;5.83;;;5.40;1.00;;;;;;5049625;28;20539;-55
2023/03/06 02:48:59;;;;;;;6.33;5.60;;;5.30;1.00;;;;;;5045431;28;20198;-56
2023/03/06 02:51:25;;;;;;;6.70;4.80;;;5.30;1.00;;;;;;5045731;28;20180;-51
2023/03/06 02:53:50;;;;;;;6.77;5.43;;;5.30;1.00;;;;;;5045089;28;20470;-53
2023/03/06 02:56:16;;;;;;;5.70;5.03;;;5.30;1.00;;;;;;5044167;28;20180;-55
2023/03/06 02:58:42;;;;;;;8.27;5.77;;;5.40;1.00;;;;;;5049532;28;20653;-51
2023/03/06 03:01:08;;;;;;;6.20;5.10;;;5.40;1.00;;;;;;5043535;28;20461;-54
2023/03/06 03:03:33;;;;;;;6.13;5.43;;;5.50;1.00;;;;;;5045253;28;20185;-54
2023/03/06 03:05:59;;;;;;;8.60;5.93;;;5.40;1.00;;;;;;5044652;28;20618;-52
2023/03/06 03:08:26;;;;;;;7.00;5.73;;;5.40;1.00;;;;;;5045871;28;20184;-52
2023/03/06 03:10:51;;;;;;;11.30;6.27;;;5.30;1.00;;;;;;5048946;28;20785;-52
2023/03/06 03:13:18;;;;;;;8.57;6.00;;;5.30;1.00;;;;;;5048017;28;20442;-53
2023/03/06 03:15:44;;;;;;;7.23;5.80;;;5.30;1.00;;;;;;5045162;28;20693;-53
2023/03/06 03:18:10;;;;;;;8.10;6.13;;;5.20;1.00;;;;;;5043921;28;20544;-54
2023/03/06 03:20:39;;;;;;;6.90;5.63;;;5.10;1.00;;;;;;5043147;28;20189;-51
2023/03/06 03:23:05;;;;;;;9.27;5.70;;;5.00;1.00;;;;;;5043569;28;20446;-52
2023/03/06 03:25:31;;;;;;;7.53;5.30;;;5.10;1.00;;;;;;5041866;28;20484;-51
2023/03/06 03:27:56;;;;;;;7.93;5.23;;;4.90;1.00;;;;;;5046561;28;20200;-54
2023/03/06 03:30:22;;;;;;;7.43;5.33;;;4.70;1.00;;;;;;5042533;28;20191;-53
2023/03/06 03:32:48;;;;;;;8.70;5.43;;;4.60;1.00;;;;;;5044870;28;21536;-52
2023/03/06 03:35:13;;;;;;;10.90;5.60;;;4.70;1.00;;;;;;5044149;28;20210;-55
2023/03/06 03:37:39;;;;;;;10.17;6.00;;;4.60;1.00;;;;;;5047699;28;20215;-52
2023/03/06 03:40:06;;;;;;;7.23;5.80;;;4.50;1.00;;;;;;5043817;28;20211;-53
2023/03/06 03:42:32;;;;;;;9.10;5.90;;;4.50;1.00;;;;;;5044314;28;20200;-54
2023/03/06 03:44:57;;;;;;;9.40;6.90;;;4.60;1.00;;;;;;5047059;28;20500;-55
2023/03/06 03:47:23;;;;;;;10.30;6.87;;;4.50;1.00;;;;;;5045158;28;20196;-51
2023/03/06 03:49:49;;;;;;;7.63;5.43;;;4.50;1.00;;;;;;5045871;28;20287;-54
2023/03/06 03:52:14;;;;;;;10.13;5.60;;;4.50;1.00;;;;;;5045584;28;20218;-51
2023/03/06 03:54:40;;;;;;;7.97;5.70;;;4.40;1.00;;;;;;5040285;28;20289;-51
2023/03/06 03:57:06;;;;;;;8.47;6.30;;;4.40;1.00;;;;;;5045417;28;20192;-54
2023/03/06 03:59:32;;;;;;;7.70;5.23;;;4.40;1.00;;;;;;5045572;28;20196;-56
2023/03/06 04:01:58;;;;;;;8.23;5.97;;;4.40;1.00;;;;;;5046727;28;20184;-52
2023/03/06 04:04:23;;;;;;;7.50;5.50;;;4.30;1.00;;;;;;5049590;28;20208;-53
2023/03/06 04:06:49;;;;;;;7.40;5.53;;;4.40;1.00;;;;;;5045384;28;20446;-53
2023/03/06 04:09:15;;;;;;;8.83;7.93;;;4.40;1.00;;;;;;5047096;28;20180;-53
2023/03/06 04:11:40;;;;;;;10.83;6.50;;;4.40;1.00;;;;;;5047965;28;20190;-56
2023/03/06 04:14:07;;;;;;;7.30;5.70;;;4.40;1.00;;;;;;5048184;28;20191;-57
2023/03/06 04:16:33;;;;;;;8.30;5.70;;;4.40;1.00;;;;;;5043654;28;20181;-54
2023/03/06 04:18:58;;;;;;;8.67;6.10;;;4.40;1.00;;;;;;5044924;28;21322;-52
2023/03/06 04:21:24;;;;;;;9.00;5.00;;;4.20;1.00;;;;;;5041695;28;20439;-52
2023/03/06 04:23:50;;;;;;;8.83;5.83;;;4.20;1.00;;;;;;5048579;28;20247;-53
2023/03/06 04:26:15;;;;;;;6.27;5.53;;;4.20;1.00;;;;;;5047677;28;20286;-54
2023/03/06 04:28:41;;;;;;;7.33;5.77;;;4.20;1.00;;;;;;5043009;28;20200;-53
2023/03/06 04:31:06;;;;;;;9.87;6.00;;;4.30;1.00;;;;;;5042130;28;20584;-54
2023/03/06 04:33:33;;;;;;;8.87;6.13;;;4.40;1.00;;;;;;5033872;28;20479;-52
2023/03/06 04:35:58;;;;;;;9.93;6.83;;;4.40;1.00;;;;;;5029649;28;20869;-53
2023/03/06 04:38:24;;;;;;;7.10;5.60;;;4.50;1.00;;;;;;5045564;28;20531;-53
2023/03/06 04:40:50;;;;;;;9.33;6.40;;;4.60;1.00;;;;;;5049816;28;20614;-52
2023/03/06 04:43:15;;;;;;;11.40;5.50;;;4.40;1.00;;;;;;5043199;28;20192;-53
2023/03/06 04:45:41;;;;;;;8.30;6.50;;;4.40;1.00;;;;;;5045442;28;20215;-56
2023/03/06 04:48:07;;;;;;;11.03;6.60;;;4.50;1.00;;;;;;5046025;28;20209;-53
2023/03/06 04:50:33;;;;;;;7.73;5.43;;;4.60;1.00;;;;;;5043031;28;20706;-53
2023/03/06 04:53:00;;;;;;;8.67;6.40;;;4.60;1.00;;;;;;5047082;28;20295;-51
2023/03/06 04:55:26;;;;;;;11.03;6.77;;;4.60;1.00;;;;;;5044314;28;20832;-54
2023/03/06 04:57:52;;;;;;;7.57;5.23;;;4.50;1.00;;;;;;5051194;28;20570;-55
2023/03/06 05:00:23;;;;;;;8.20;5.50;;;4.50;1.00;;;;;;5043049;28;20803;-53
2023/03/06 05:02:49;;;;;;;8.90;6.20;;;4.40;1.00;;;;;;5045483;28;20483;-55
2023/03/06 05:05:16;;;;;;;8.70;6.27;;;4.40;1.00;;;;;;5039961;28;20484;-55
2023/03/06 05:07:41;;;;;;;10.80;6.10;;;4.20;1.00;;;;;;5039890;28;20532;-53
2023/03/06 05:10:10;;;;;;;7.93;6.20;;;4.30;1.00;;;;;;5044307;28;20454;-54
2023/03/06 05:12:36;;;;;;;9.30;6.03;;;4.30;1.00;;;;;;5043834;28;20185;-53
2023/03/06 05:15:07;;;;;;;8.70;6.40;;;4.30;1.00;;;;;;5041475;28;20462;-53
2023/03/06 05:17:32;;;;;;;9.57;5.80;;;4.20;1.00;;;;;;5041172;28;20454;-55
2023/03/06 05:19:58;;;;;;;10.30;7.43;;;4.20;1.00;;;;;;5046202;28;20466;-57
2023/03/06 05:22:24;;;;;;;7.87;6.00;;;4.10;1.00;;;;;;5042391;28;20203;-55
2023/03/06 05:24:50;;;;;;;12.10;7.20;;;4.10;1.00;;;;;;5044971;28;20337;-55
2023/03/06 05:27:15;;;;;;;13.67;7.00;;;4.00;1.00;;;;;;5046650;28;20459;-53
2023/03/06 05:29:41;;;;;;;9.30;6.30;;;3.90;1.00;;;;;;5042202;28;20287;-52
2023/03/06 05:32:07;;;;;;;7.43;6.20;;;3.90;1.00;;;;;;5040258;28;20228;-53
2023/03/06 05:34:33;;;;;;;8.70;6.43;;;4.00;1.00;;;;;;5042681;28;20203;-52
2023/03/06 05:37:00;;;;;;;8.00;6.27;;;4.00;1.00;;;;;;5041692;28;20454;-55
2023/03/06 05:39:27;;;;;;;8.50;5.80;;;4.10;1.00;;;;;;5038035;28;20447;-52
2023/03/06 05:41:53;;;;;;;7.37;6.10;;;4.10;1.00;;;;;;5045026;28;20465;-56
2023/03/06 05:44:18;;;;;;;10.83;6.90;;;4.00;1.00;;;;;;5043509;28;20504;-55
2023/03/06 05:46:44;;;;;;;9.10;6.87;;;4.00;1.00;;;;;;5044848;28;20193;-56
2023/03/06 05:49:09;;;;;;;7.83;5.60;;;3.90;1.00;;;;;;5039874;28;20218;-53
2023/03/06 05:51:35;;;;;;;10.63;6.73;;;3.90;1.00;;;;;;5045773;28;20327;-55
2023/03/06 05:54:01;;;;;;;11.80;7.63;;;4.00;1.00;;;;;;5037078;28;20308;-56
2023/03/06 05:56:27;;;;;;;9.90;6.10;;;3.90;1.00;;;;;;5046907;28;20183;-56
2023/03/06 05:58:52;;;;;;;11.00;6.93;;;3.90;1.00;;;;;;5045741;28;20223;-54
2023/03/06 06:01:19;;;;;;;8.93;6.07;;;4.00;1.00;;;;;;5047533;28;20199;-54
2023/03/06 06:03:45;;;;;;;7.70;6.13;;;4.10;1.00;;;;;;5044961;28;20374;-55
2023/03/06 06:06:12;;;;;;;11.70;7.53;;;4.10;1.00;;;;;;5052808;28;21171;-53
2023/03/06 06:08:39;;;;;;;14.13;6.40;;;4.10;1.00;;;;;;5051615;28;20461;-54
2023/03/06 06:11:06;;;;;;;11.13;6.53;;;4.00;1.00;;;;;;5055676;28;20449;-53
2023/03/06 06:13:32;;;;;;;12.83;6.93;;;4.10;1.00;;;;;;5052225;28;20445;-55
2023/03/06 06:15:57;;;;;;;12.27;7.10;;;4.20;1.00;;;;;;5047801;28;20453;-52
2023/03/06 06:18:23;;;;;;;10.40;6.17;;;4.20;1.00;;;;;;5047840;28;20450;-54
2023/03/06 06:20:49;;;;;;;10.47;6.90;;;4.20;1.00;;;;;;5049563;28;20207;-51
2023/03/06 06:23:14;;;;;;;9.00;6.37;;;4.20;1.00;;;;;;5054528;28;20192;-55
2023/03/06 06:25:40;;;;;;;9.77;6.30;;;4.30;1.00;;;;;;5056346;28;20208;-53
2023/03/06 06:28:05;;;;;;;12.30;7.93;;;4.20;1.00;;;;;;5055446;28;20215;-54
2023/03/06 06:30:32;;;;;;;11.63;8.10;;;4.30;1.00;;;;;;5047859;28;20258;-52
2023/03/06 06:32:58;;;;;;;14.03;8.00;;;4.30;1.00;;;;;;5058743;28;20534;-55
2023/03/06 06:35:24;;;;;;;10.90;6.83;;;4.40;1.00;;;;;;5045995;28;20447;-54
2023/03/06 06:37:50;;;;;;;11.17;7.50;;;4.50;1.00;;;;;;5052257;28;20451;-56
2023/03/06 06:40:16;;;;;;;9.50;7.37;;;4.50;1.00;;;;;;5051535;28;20454;-52
2023/03/06 06:42:42;;;;;;;10.93;6.23;;;4.40;1.00;;;;;;5050939;28;20466;-53
2023/03/06 06:45:09;;;;;;;12.03;7.57;;;4.40;1.00;;;;;;5053252;28;20591;-53
2023/03/06 06:47:39;;;;;;;10.43;7.40;;;4.40;1.00;;;;;;5053346;28;20497;-53
2023/03/06 06:50:06;;;;;;;12.50;6.70;;;4.50;1.00;;;;;;5057507;28;20443;-54
2023/03/06 06:52:32;;;;;;;14.20;7.30;;;4.70;1.00;;;;;;5057351;28;20440;-54
2023/03/06 06:54:57;;;;;;;12.60;7.93;;;4.90;1.00;;;;;;5049872;28;20469;-54
2023/03/06 06:57:24;;;;;;;10.97;7.50;;;5.20;1.00;;;;;;5053905;28;20273;-53
2023/03/06 06:59:50;;;;;;;9.27;6.50;;;5.20;1.00;;;;;;5058202;28;20765;-53
2023/03/06 07:02:16;;;;;;;11.10;7.03;;;5.10;1.00;;;;;;5050343;28;20228;-52
2023/03/06 07:04:42;;;;;;;10.27;7.27;;;5.10;1.00;;;;;;5057558;28;20283;-53
2023/03/06 07:07:08;;;;;;;11.47;8.03;;;5.20;1.00;;;;;;5057381;28;20459;-56
2023/03/06 07:09:33;;;;;;;11.17;7.47;;;5.20;1.00;;;;;;5052271;28;20511;-56
2023/03/06 07:11:59;;;;;;;13.87;7.47;;;5.20;1.00;;;;;;5049902;28;20699;-54
2023/03/06 07:14:24;;;;;;;13.30;8.80;;;5.30;1.00;;;;;;5051922;28;20200;-55
2023/03/06 07:16:50;;;;;;;12.37;8.70;;;5.40;1.00;;;;;;5044466;28;20258;-52
2023/03/06 07:19:16;;;;;;;9.23;7.50;;;5.40;1.00;;;;;;5046007;28;20250;-55
2023/03/06 07:21:41;;;;;;;11.70;7.53;;;5.60;1.00;;;;;;5044572;28;20321;-55
2023/03/06 07:24:07;;;;;;;10.00;6.40;;;5.70;1.00;;;;;;5049799;28;20192;-53
2023/03/06 07:26:33;;;;;;;16.33;8.30;;;5.60;1.00;;;;;;5049492;28;20181;-54
2023/03/06 07:28:59;;;;;;;12.83;7.97;;;5.70;1.00;;;;;;5056025;28;20197;-54
2023/03/06 07:31:26;;;;;;;12.43;8.23;;;6.10;1.00;;;;;;5060248;28;20446;-55
2023/03/06 07:33:53;;;;;;;11.30;8.13;;;5.70;1.00;;;;;;5058897;28;20197;-53
2023/03/06 07:36:20;;;;;;;17.60;10.17;;;5.70;1.00;;;;;;5051118;28;20451;-55
2023/03/06 07:38:46;;;;;;;14.90;8.60;;;5.80;1.00;;;;;;5062577;28;20492;-54
2023/03/06 07:41:12;;;;;;;12.70;7.80;;;5.70;1.00;;;;;;5053231;28;20450;-52
2023/03/06 07:43:43;;;;;;;10.40;7.77;;;5.70;1.00;;;;;;5051916;28;20473;-55
2023/03/06 07:46:09;;;;;;;11.97;8.20;;;5.70;1.00;;;;;;5060436;28;20474;-51
2023/03/06 07:48:36;;;;;;;9.87;7.27;;;5.70;1.00;;;;;;5056527;28;20964;-54
2023/03/06 07:51:05;;;;;;;10.03;7.40;;;5.80;1.00;;;;;;5055958;28;20932;-54
2023/03/06 07:53:31;;;;;;;9.63;7.27;;;5.90;1.00;;;;;;5052020;28;20477;-56
2023/03/06 07:55:57;;;;;;;15.43;7.90;;;6.10;1.00;;;;;;5046311;28;20456;-52
2023/03/06 07:58:24;;;;;;;10.30;7.33;;;6.10;1.00;;;;;;5043268;28;20458;-54
2023/03/06 08:00:50;;;;;;;11.23;7.90;;;6.30;1.00;;;;;;5050010;28;20654;-55
2023/03/06 08:03:16;;;;;;;9.13;6.93;;;6.50;1.00;;;;;;5046222;28;20465;-54
2023/03/06 08:05:41;;;;;;;11.87;8.67;;;6.50;1.00;;;;;;5051927;28;20208;-53
2023/03/06 08:08:07;;;;;;;15.10;8.30;;;6.50;1.00;;;;;;5046185;28;20475;-55
2023/03/06 08:10:33;;;;;;;12.63;8.47;;;6.60;1.00;;;;;;5045310;28;20856;-52
2023/03/06 08:12:59;;;;;;;14.93;8.70;;;6.90;1.00;;;;;;5048391;28;20442;-54
2023/03/06 08:15:25;;;;;;;12.43;8.10;;;6.70;1.00;;;;;;5049667;28;20234;-53
2023/03/06 08:17:51;;;;;;;13.70;7.60;;;6.70;1.00;;;;;;5051985;28;20652;-54
2023/03/06 08:20:17;;;;;;;12.93;8.20;;;6.90;1.00;;;;;;5046978;28;20449;-56
2023/03/06 08:22:44;;;;;;;13.23;8.37;;;7.00;1.00;;;;;;5054493;28;20453;-54
2023/03/06 08:25:10;;;;;;;14.80;9.00;;;7.10;1.00;;;;;;5056886;28;20251;-54
2023/03/06 08:27:36;;;;;;;15.57;9.20;;;7.20;1.00;;;;;;5044883;28;20454;-54
2023/03/06 08:30:02;;;;;;;13.70;8.73;;;7.40;1.00;;;;;;5050650;28;20438;-55
2023/03/06 08:32:28;;;;;;;13.67;8.10;;;7.70;1.00;;;;;;5057386;28;20518;-53
2023/03/06 08:34:54;;;;;;;14.50;8.90;;;7.80;1.00;;;;;;5053101;28;20453;-54
2023/03/06 08:37:19;;;;;;;12.83;8.17;;;7.80;1.00;;;;;;5054391;28;20198;-54
2023/03/06 08:39:45;;;;;;;11.07;8.10;;;7.80;1.00;;;;;;5051603;28;20192;-53
2023/03/06 08:42:10;;;;;;;12.83;7.80;;;7.80;1.00;;;;;;5048666;28;20223;-55
2023/03/06 08:44:36;;;;;;;11.80;8.73;;;7.70;1.00;;;;;;5053365;28;20412;-53
2023/03/06 08:47:02;;;;;;;14.30;8.27;;;7.80;1.00;;;;;;5047984;28;20199;-52
2023/03/06 08:49:28;;;;;;;14.97;9.37;;;7.70;1.00;;;;;;5057912;28;20516;-54
2023/03/06 08:51:54;;;;;;;13.90;8.03;;;7.80;1.00;;;;;;5055271;28;20577;-53
2023/03/06 08:54:20;;;;;;;15.73;9.87;;;7.70;1.00;;;;;;5056357;28;20999;-55
2023/03/06 08:56:46;;;;;;;11.77;8.33;;;7.60;1.00;;;;;;5051163;28;20196;-55
2023/03/06 08:59:12;;;;;;;11.70;8.47;;;7.60;1.00;;;;;;5049080;28;20697;-54
2023/03/06 09:01:39;;;;;;;16.63;9.30;;;7.70;1.00;;;;;;5053498;28;20947;-54
2023/03/06 09:04:10;;;;;;;13.27;8.33;;;7.80;1.00;;;;;;5044472;28;20856;-52
2023/03/06 09:06:38;;;;;;;14.97;7.77;;;7.70;1.00;;;;;;5051802;28;20566;-57
2023/03/06 09:09:05;;;;;;;12.50;7.63;;;7.50;1.00;;;;;;5047886;28;20450;-54
2023/03/06 09:11:31;;;;;;;13.70;8.93;;;7.30;1.00;;;;;;5050980;28;20454;-53
2023/03/06 09:13:57;;;;;;;10.40;8.03;;;7.20;1.00;;;;;;5052668;28;21109;-53
2023/03/06 09:16:23;;;;;;;12.23;8.67;;;7.20;1.00;;;;;;5039018;28;20215;-53
2023/03/06 09:18:51;;;;;;;15.77;8.87;;;7.20;1.00;;;;;;5052593;28;20555;-53
2023/03/06 09:21:18;;;;;;;13.90;7.73;;;7.00;1.00;;;;;;5047153;28;20537;-53
2023/03/06 09:23:44;;;;;;;15.50;9.20;;;7.10;1.00;;;;;;5056814;28;20576;-54
2023/03/06 09:26:10;;;;;;;11.63;9.30;;;7.00;1.00;;;;;;5044157;28;20972;-53
2023/03/06 09:28:37;;;;;;;15.83;8.73;;;7.00;1.00;;;;;;5046575;28;20453;-53
2023/03/06 09:31:30;;;;;;;12.70;8.60;;;6.90;1.00;;;;;;5056575;28;20446;-55
2023/03/06 09:33:56;;;;;;;13.70;9.10;;;6.90;1.00;;;;;;5049270;28;20908;-54
2023/03/06 09:36:22;;;;;;;13.43;8.40;;;6.90;1.00;;;;;;5050196;28;20617;-54
2023/03/06 09:38:49;;;;;;;15.47;8.70;;;6.80;1.00;;;;;;5051786;28;20189;-55
2023/03/06 09:41:23;;;;;;;15.03;9.70;;;6.80;1.00;;;;;;5055898;28;20446;-54
2023/03/06 09:43:52;;;;;;;13.47;8.90;;;7.20;1.00;;;;;;5053352;28;20447;-53
2023/03/06 09:46:41;;;;;;;15.00;8.67;;;7.60;1.00;;;;;;5062039;28;20959;-55
2023/03/06 09:49:28;;;;;;;14.20;9.23;;;7.90;1.00;;;;;;5051637;28;20839;-56
2023/03/06 09:52:18;;;;;;;12.17;9.10;;;8.10;1.00;;;;;;5056888;28;20446;-55
2023/03/06 09:54:53;;;;;;;12.30;8.60;;;8.20;1.00;;;;;;5050305;28;20485;-54
2023/03/06 09:57:32;;;;;;;12.53;8.83;;;8.30;1.00;;;;;;5055432;28;20463;-75
2023/03/06 10:00:04;;;;;;;14.63;9.17;;;8.50;1.00;;;;;;5049366;28;22909;-55
2023/03/06 10:02:40;;;;;;;14.50;9.00;;;8.60;1.00;;;;;;5051622;28;21282;-54
2023/03/06 10:05:27;;;;;;;13.47;9.30;;;8.60;1.00;;;;;;5056331;28;20555;-57
2023/03/06 10:08:05;;;;;;;15.20;10.37;;;8.20;1.00;;;;;;5048448;28;20451;-53
2023/03/06 10:10:49;;;;;;;15.03;9.13;;;8.30;1.00;;;;;;5052379;28;20454;-54
2023/03/06 10:13:44;;;;;;;16.87;10.03;;;8.20;1.00;;;;;;5050642;28;20417;-52
2023/03/06 10:16:29;;;;;;;13.30;8.70;;;8.20;1.00;;;;;;5053158;28;20534;-54
2023/03/06 10:19:02;;;;;;;16.27;10.73;;;8.00;1.00;;;;;;5051409;28;20838;-53
2023/03/06 10:21:44;;;;;;;14.20;10.07;;;7.80;1.00;;;;;;5042010;28;20443;-54
2023/03/06 10:24:27;;;;;;;14.97;9.97;;;7.70;1.00;;;;;;5041312;28;20461;-52
2023/03/06 10:27:20;;;;;;;12.40;9.30;;;7.60;1.00;;;;;;5047399;28;20949;-55
2023/03/06 10:29:50;;;;;;;13.53;8.33;;;7.70;1.00;;;;;;5049756;28;20964;-54
2023/03/06 10:32:36;;;;;;;13.73;10.07;;;7.70;1.00;;;;;;5052352;28;20439;-54
2023/03/06 10:35:09;;;;;;;17.80;11.97;;;7.60;1.00;;;;;;5049207;28;20468;-53
2023/03/06 10:37:35;;;;;;;16.07;11.53;;;7.50;1.00;;;;;;5055417;28;20844;-54
2023/03/06 10:40:11;;;;;;;17.40;11.43;;;7.20;1.00;;;;;;5050692;28;20458;-56
2023/03/06 10:42:47;;;;;;;17.97;11.13;;;7.00;1.00;;;;;;5053772;28;20194;-53
2023/03/06 10:45:15;;;;;;;13.10;11.53;;;6.90;1.00;;;;;;5056053;28;20474;-56
2023/03/06 10:47:42;;;;;;;15.23;10.70;;;6.80;1.00;;;;;;5061160;28;20451;-54
2023/03/06 10:50:24;;;;;;;16.87;11.10;;;7.00;1.00;;;;;;5049335;28;20785;-53
2023/03/06 10:53:03;;;;;;;15.03;10.00;;;7.30;1.00;;;;;;5058658;28;20893;-53
2023/03/06 10:55:32;;;;;;;15.23;10.50;;;7.50;1.00;;;;;;5060502;28;20446;-55
2023/03/06 10:58:18;;;;;;;17.90;9.53;;;7.50;1.00;;;;;;5060092;28;20443;-56
2023/03/06 11:00:44;;;;;;;16.93;11.20;;;7.50;1.00;;;;;;5051226;28;20533;-53
2023/03/06 11:03:17;;;;;;;16.50;9.90;;;7.50;1.00;;;;;;5052834;28;20581;-54
2023/03/06 11:06:01;;;;;;;19.03;12.43;;;7.30;1.00;;;;;;5053131;28;20477;-55
2023/03/06 11:08:28;;;;;;;17.27;10.50;;;7.20;1.00;;;;;;5052685;28;20442;-57
2023/03/06 11:11:20;;;;;;;16.63;11.27;;;7.10;1.00;;;;;;5051923;28;20451;-56
2023/03/06 11:13:56;;;;;;;16.37;11.03;;;7.00;1.00;;;;;;5051563;28;20434;-55
2023/03/06 11:16:31;;;;;;;15.83;10.80;;;7.00;1.00;;;;;;5053504;28;20493;-55
2023/03/06 11:19:02;;;;;;;18.50;11.30;;;7.00;1.00;;;;;;5052110;28;20479;-53
2023/03/06 11:21:34;;;;;;;18.27;11.23;;;7.00;1.00;;;;;;5052918;28;20449;-52
2023/03/06 11:24:17;;;;;;;17.90;11.43;;;6.90;1.00;;;;;;5055806;28;20858;-55
2023/03/06 11:26:47;;;;;;;17.43;11.20;;;6.90;1.00;;;;;;5052734;28;20450;-56
2023/03/06 11:29:39;;;;;;;19.33;12.47;;;6.90;1.00;;;;;;5051984;28;20443;-56
2023/03/06 11:32:10;;;;;;;17.80;12.20;;;6.60;1.00;;;;;;5051536;28;20443;-54
2023/03/06 11:34:47;;;;;;;21.00;13.40;;;6.60;1.00;;;;;;5050437;28;20952;-55
2023/03/06 11:37:19;;;;;;;19.83;11.90;;;6.70;1.00;;;;;;5060641;28;20442;-53
2023/03/06 11:40:07;;;;;;;19.70;12.70;;;6.60;1.00;;;;;;5051052;28;20609;-54
2023/03/06 11:42:39;;;;;;;22.20;13.10;;;6.50;1.00;;;;;;5048761;28;21112;-51
2023/03/06 11:45:30;;;;;;;21.23;13.23;;;6.50;1.00;;;;;;5052224;28;20461;-54
2023/03/06 11:48:13;;;;;;;19.13;12.73;;;6.50;1.00;;;;;;5050097;28;20438;-53
2023/03/06 11:50:51;;;;;;;17.93;12.40;;;6.50;1.00;;;;;;5053309;28;20526;-54
2023/03/06 11:53:21;;;;;;;20.47;12.53;;;6.50;1.00;;;;;;5048932;28;20550;-53
2023/03/06 11:56:08;;;;;;;22.00;12.80;;;6.60;1.00;;;;;;5055034;28;20538;-54
2023/03/06 11:58:55;;;;;;;20.03;12.40;;;6.70;1.00;;;;;;5045698;28;20450;-54
2023/03/06 12:01:43;;;;;;;23.63;13.00;;;6.90;1.00;;;;;;5050451;28;20452;-55
2023/03/06 12:04:37;;;;;;;22.67;12.90;;;7.20;1.00;;;;;;5041209;28;20455;-53
2023/03/06 12:07:20;;;;;;;19.63;12.90;;;7.50;1.00;;;;;;5056245;28;20461;-53
2023/03/06 12:09:57;;;;;;;20.17;14.03;;;7.60;1.00;;;;;;5049790;28;20454;-55
2023/03/06 12:12:47;;;;;;;17.30;11.50;;;8.00;1.00;;;;;;5052054;28;20434;-55
2023/03/06 12:15:34;;;;;;;19.90;12.60;;;8.20;1.00;;;;;;5050463;28;20462;-53
2023/03/06 12:18:17;;;;;;;17.10;11.37;;;8.40;1.00;;;;;;5049695;28;20447;-52
2023/03/06 12:21:07;;;;;;;17.73;12.40;;;8.50;1.00;;;;;;5052579;28;20442;-56
2023/03/06 12:24:33;;;;;;;22.80;13.20;;;8.60;1.00;;;;;;5055648;28;20451;-55
2023/03/06 12:27:13;;;;;;;16.77;12.53;;;9.00;1.00;;;;;;4981251;28;20529;-53
2023/03/06 12:30:02;;;;;;;18.50;12.33;;;9.20;1.00;;;;;;5042092;28;20836;-53
2023/03/06 12:32:48;;;;;;;14.77;11.33;;;9.20;1.00;;;;;;5044287;28;20447;-55
2023/03/06 12:35:22;;;;;;;19.93;12.53;;;9.40;1.00;;;;;;5042977;28;20442;-54
2023/03/06 12:37:59;;;;;;;20.10;12.97;;;9.40;1.00;;;;;;5046333;28;20423;-54
2023/03/06 12:40:36;;;;;;;18.43;11.77;;;9.30;1.00;;;;;;5041898;28;20952;-56
2023/03/06 12:43:34;;;;;;;17.60;12.17;;;8.70;1.00;;;;;;5062371;28;20442;-54
2023/03/06 12:46:14;;;;;;;18.00;11.70;;;8.40;1.00;;;;;;5041071;28;20979;-55
2023/03/06 12:48:44;;;;;;;20.33;12.63;;;8.40;1.00;;;;;;5046540;28;20414;-55
2023/03/06 12:51:15;;;;;;;16.17;11.40;;;8.30;1.00;;;;;;5041651;28;20504;-55
2023/03/06 12:53:42;;;;;;;16.10;10.73;;;8.40;1.00;;;;;;5044803;28;21057;-53
2023/03/06 12:56:08;;;;;;;13.90;10.17;;;8.00;1.00;;;;;;5044632;28;20467;-56
2023/03/06 12:58:51;;;;;;;15.10;10.70;;;7.70;1.00;;;;;;5052368;28;20455;-54
2023/03/06 13:01:48;;;;;;;15.33;11.37;;;7.70;1.00;;;;;;5047655;28;20436;-54
2023/03/06 13:04:22;;;;;;;16.40;11.10;;;7.60;1.00;;;;;;5044374;28;20447;-55
2023/03/06 13:07:03;;;;;;;16.80;10.93;;;7.70;1.00;;;;;;5049256;28;20477;-55
2023/03/06 13:10:01;;;;;;;17.23;10.53;;;7.50;1.00;;;;;;5043998;28;20533;-54
2023/03/06 13:12:27;;;;;;;20.53;14.40;;;7.20;1.00;;;;;;5046206;28;20449;-55
2023/03/06 13:14:58;;;;;;;14.27;11.20;;;7.10;1.00;;;;;;5047392;28;20455;-55